sensor_id;sensor_type;location;lat;lon;timestamp;pressure;altitude;pressure_sealevel;temperature;humidity
71964;BME280;59834;52.124;5.422;2023-06-24T00:01:33;102460.03;;;18.11;78.00
71964;BME280;59834;52.124;5.422;2023-06-24T00:04:00;102467.44;;;18.06;78.52
71964;BME280;59834;52.124;5.422;2023-06-24T00:06:27;102469.78;;;18.11;78.13
71964;BME280;59834;52.124;5.422;2023-06-24T00:08:53;102476.56;;;18.15;78.06
71964;BME280;59834;52.124;5.422;2023-06-24T00:11:30;102469.78;;;18.11;77.76
71964;BME280;59834;52.124;5.422;2023-06-24T00:13:57;102474.41;;;18.07;78.37
71964;BME280;59834;52.124;5.422;2023-06-24T00:16:23;102475.59;;;18.03;78.95
71964;BME280;59834;52.124;5.422;2023-06-24T00:18:56;102479.19;;;18.02;78.57
71964;BME280;59834;52.124;5.422;2023-06-24T00:21:25;102488.94;;;18.02;79.01
71964;BME280;59834;52.124;5.422;2023-06-24T00:24:20;102487.91;;;18.04;78.82
71964;BME280;59834;52.124;5.422;2023-06-24T00:26:59;102478.34;;;18.02;78.86
71964;BME280;59834;52.124;5.422;2023-06-24T00:29:26;102476.66;;;18.01;78.90
71964;BME280;59834;52.124;5.422;2023-06-24T00:31:53;102483.66;;;18.02;79.64
71964;BME280;59834;52.124;5.422;2023-06-24T00:34:20;102490.31;;;17.95;80.23
71964;BME280;59834;52.124;5.422;2023-06-24T00:36:47;102491.25;;;17.94;80.56
71964;BME280;59834;52.124;5.422;2023-06-24T00:39:13;102480.88;;;17.90;80.09
71964;BME280;59834;52.124;5.422;2023-06-24T00:41:40;102478.97;;;17.93;79.68
71964;BME280;59834;52.124;5.422;2023-06-24T00:44:06;102485.97;;;17.94;78.92
71964;BME280;59834;52.124;5.422;2023-06-24T00:46:34;102481.53;;;17.81;79.59
71964;BME280;59834;52.124;5.422;2023-06-24T00:49:01;102488.00;;;17.77;78.49
71964;BME280;59834;52.124;5.422;2023-06-24T00:51:29;102485.09;;;17.80;79.28
71964;BME280;59834;52.124;5.422;2023-06-24T00:54:00;102484.38;;;17.78;78.43
71964;BME280;59834;52.124;5.422;2023-06-24T00:56:35;102488.16;;;17.74;78.50
71964;BME280;59834;52.124;5.422;2023-06-24T00:59:06;102491.81;;;17.59;79.37
71964;BME280;59834;52.124;5.422;2023-06-24T01:01:34;102488.75;;;17.52;79.35
71964;BME280;59834;52.124;5.422;2023-06-24T01:04:02;102476.47;;;17.51;79.58
71964;BME280;59834;52.124;5.422;2023-06-24T01:06:30;102476.22;;;17.41;80.09
71964;BME280;59834;52.124;5.422;2023-06-24T01:08:58;102468.69;;;17.35;80.42
71964;BME280;59834;52.124;5.422;2023-06-24T01:11:27;102466.44;;;17.29;80.16
71964;BME280;59834;52.124;5.422;2023-06-24T01:13:54;102470.44;;;17.22;80.32
71964;BME280;59834;52.124;5.422;2023-06-24T01:25:39;102478.84;;;17.02;81.32
71964;BME280;59834;52.124;5.422;2023-06-24T01:28:19;102472.97;;;16.96;80.97
71964;BME280;59834;52.124;5.422;2023-06-24T01:31:06;102471.59;;;16.91;81.94
71964;BME280;59834;52.124;5.422;2023-06-24T01:33:50;102469.22;;;16.86;82.37
71964;BME280;59834;52.124;5.422;2023-06-24T01:36:22;102464.44;;;16.79;82.28
71964;BME280;59834;52.124;5.422;2023-06-24T01:38:56;102469.84;;;16.77;82.68
71964;BME280;59834;52.124;5.422;2023-06-24T01:41:26;102455.84;;;16.75;83.36
71964;BME280;59834;52.124;5.422;2023-06-24T01:43:57;102469.66;;;16.80;83.56
71964;BME280;59834;52.124;5.422;2023-06-24T01:46:25;102472.38;;;16.79;83.49
71964;BME280;59834;52.124;5.422;2023-06-24T01:48:58;102471.22;;;16.83;83.37
71964;BME280;59834;52.124;5.422;2023-06-24T01:51:26;102478.13;;;16.85;83.60
71964;BME280;59834;52.124;5.422;2023-06-24T01:53:59;102471.88;;;16.86;83.36
71964;BME280;59834;52.124;5.422;2023-06-24T01:56:27;102470.94;;;16.87;83.76
71964;BME280;59834;52.124;5.422;2023-06-24T01:58:58;102470.09;;;16.87;83.88
71964;BME280;59834;52.124;5.422;2023-06-24T02:01:27;102473.69;;;16.86;83.44
71964;BME280;59834;52.124;5.422;2023-06-24T02:03:55;102468.50;;;16.84;83.20
71964;BME280;59834;52.124;5.422;2023-06-24T02:06:24;102462.44;;;16.82;83.60
71964;BME280;59834;52.124;5.422;2023-06-24T02:08:53;102460.84;;;16.80;83.69
71964;BME280;59834;52.124;5.422;2023-06-24T02:11:22;102461.81;;;16.79;83.92
71964;BME280;59834;52.124;5.422;2023-06-24T02:13:51;102463.69;;;16.77;84.03
71964;BME280;59834;52.124;5.422;2023-06-24T02:16:20;102457.06;;;16.69;84.86
71964;BME280;59834;52.124;5.422;2023-06-24T02:18:48;102456.31;;;16.67;85.08
71964;BME280;59834;52.124;5.422;2023-06-24T02:21:17;102453.94;;;16.63;84.92
71964;BME280;59834;52.124;5.422;2023-06-24T02:23:45;102452.66;;;16.56;84.15
71964;BME280;59834;52.124;5.422;2023-06-24T02:26:15;102456.63;;;16.48;84.67
71964;BME280;59834;52.124;5.422;2023-06-24T02:28:44;102457.97;;;16.41;84.90
71964;BME280;59834;52.124;5.422;2023-06-24T02:31:12;102449.69;;;16.33;84.63
71964;BME280;59834;52.124;5.422;2023-06-24T02:33:41;102446.47;;;16.28;85.32
71964;BME280;59834;52.124;5.422;2023-06-24T02:36:08;102449.56;;;16.20;85.51
71964;BME280;59834;52.124;5.422;2023-06-24T02:38:34;102445.50;;;16.15;85.98
71964;BME280;59834;52.124;5.422;2023-06-24T02:41:01;102439.56;;;16.11;86.49
71964;BME280;59834;52.124;5.422;2023-06-24T02:43:32;102438.34;;;16.02;86.95
71964;BME280;59834;52.124;5.422;2023-06-24T02:46:01;102439.47;;;15.98;87.11
71964;BME280;59834;52.124;5.422;2023-06-24T02:48:29;102448.88;;;15.88;87.59
71964;BME280;59834;52.124;5.422;2023-06-24T02:50:58;102446.53;;;15.84;87.98
71964;BME280;59834;52.124;5.422;2023-06-24T02:53:25;102444.94;;;15.81;88.17
71964;BME280;59834;52.124;5.422;2023-06-24T02:55:52;102447.56;;;15.81;88.44
71964;BME280;59834;52.124;5.422;2023-06-24T02:58:21;102444.94;;;15.81;88.88
71964;BME280;59834;52.124;5.422;2023-06-24T03:00:48;102441.63;;;15.77;89.54
71964;BME280;59834;52.124;5.422;2023-06-24T03:03:17;102442.47;;;15.78;89.43
71964;BME280;59834;52.124;5.422;2023-06-24T03:05:44;102443.06;;;15.83;89.68
71964;BME280;59834;52.124;5.422;2023-06-24T03:08:11;102439.53;;;15.83;89.41
71964;BME280;59834;52.124;5.422;2023-06-24T03:10:39;102439.81;;;15.78;90.07
71964;BME280;59834;52.124;5.422;2023-06-24T03:13:05;102440.78;;;15.77;89.84
71964;BME280;59834;52.124;5.422;2023-06-24T03:15:32;102434.47;;;15.79;89.59
71964;BME280;59834;52.124;5.422;2023-06-24T03:17:59;102438.88;;;15.79;89.70
71964;BME280;59834;52.124;5.422;2023-06-24T03:20:26;102439.75;;;15.79;89.86
71964;BME280;59834;52.124;5.422;2023-06-24T03:22:53;102444.94;;;15.81;89.53
71964;BME280;59834;52.124;5.422;2023-06-24T03:25:21;102443.91;;;15.84;89.38
71964;BME280;59834;52.124;5.422;2023-06-24T03:27:47;102444.09;;;15.81;88.78
71964;BME280;59834;52.124;5.422;2023-06-24T03:30:14;102453.22;;;15.75;88.80
71964;BME280;59834;52.124;5.422;2023-06-24T03:32:41;102446.41;;;15.71;88.97
71964;BME280;59834;52.124;5.422;2023-06-24T03:35:13;102455.28;;;15.70;89.35
71964;BME280;59834;52.124;5.422;2023-06-24T03:37:40;102453.66;;;15.67;88.78
71964;BME280;59834;52.124;5.422;2023-06-24T03:40:08;102455.50;;;15.65;88.93
71964;BME280;59834;52.124;5.422;2023-06-24T03:42:35;102454.34;;;15.71;88.29
71964;BME280;59834;52.124;5.422;2023-06-24T03:45:03;102449.72;;;15.74;88.03
71964;BME280;59834;52.124;5.422;2023-06-24T03:47:30;102456.03;;;15.72;88.04
71964;BME280;59834;52.124;5.422;2023-06-24T03:49:57;102444.53;;;15.73;88.08
71964;BME280;59834;52.124;5.422;2023-06-24T03:52:24;102449.63;;;15.76;88.43
71964;BME280;59834;52.124;5.422;2023-06-24T03:54:51;102451.72;;;15.85;88.09
71964;BME280;59834;52.124;5.422;2023-06-24T03:57:19;102451.34;;;15.91;87.83
71964;BME280;59834;52.124;5.422;2023-06-24T03:59:45;102447.75;;;15.92;88.04
71964;BME280;59834;52.124;5.422;2023-06-24T04:02:12;102446.06;;;15.91;87.78
71964;BME280;59834;52.124;5.422;2023-06-24T04:04:40;102455.31;;;15.98;87.73
71964;BME280;59834;52.124;5.422;2023-06-24T04:07:06;102451.34;;;16.06;87.16
71964;BME280;59834;52.124;5.422;2023-06-24T04:09:34;102447.28;;;16.43;85.69
71964;BME280;59834;52.124;5.422;2023-06-24T04:12:02;102448.78;;;17.95;80.03
71964;BME280;59834;52.124;5.422;2023-06-24T04:14:28;102445.22;;;19.30;73.89
71964;BME280;59834;52.124;5.422;2023-06-24T04:16:55;102451.22;;;20.14;70.11
71964;BME280;59834;52.124;5.422;2023-06-24T04:19:27;102456.41;;;21.04;66.81
71964;BME280;59834;52.124;5.422;2023-06-24T04:21:53;102456.34;;;21.89;61.92
71964;BME280;59834;52.124;5.422;2023-06-24T04:24:20;102446.28;;;22.64;59.72
71964;BME280;59834;52.124;5.422;2023-06-24T04:26:47;102450.69;;;23.14;58.11
71964;BME280;59834;52.124;5.422;2023-06-24T04:29:13;102453.34;;;23.43;56.32
71964;BME280;59834;52.124;5.422;2023-06-24T04:31:40;102452.88;;;22.70;58.68
71964;BME280;59834;52.124;5.422;2023-06-24T04:34:06;102440.84;;;23.43;56.19
71964;BME280;59834;52.124;5.422;2023-06-24T04:36:33;102442.69;;;23.99;54.74
71964;BME280;59834;52.124;5.422;2023-06-24T04:38:59;102444.78;;;24.61;52.85
71964;BME280;59834;52.124;5.422;2023-06-24T04:41:26;102436.41;;;25.09;51.14
71964;BME280;59834;52.124;5.422;2023-06-24T04:43:52;102433.47;;;25.56;49.92
71964;BME280;59834;52.124;5.422;2023-06-24T04:46:20;102438.84;;;25.82;48.97
71964;BME280;59834;52.124;5.422;2023-06-24T04:48:47;102436.28;;;26.07;47.75
71964;BME280;59834;52.124;5.422;2023-06-24T04:51:14;102442.34;;;26.09;47.75
71964;BME280;59834;52.124;5.422;2023-06-24T04:53:40;102441.09;;;26.29;47.50
71964;BME280;59834;52.124;5.422;2023-06-24T04:56:07;102441.72;;;26.82;45.72
71964;BME280;59834;52.124;5.422;2023-06-24T04:58:34;102441.75;;;27.56;44.37
71964;BME280;59834;52.124;5.422;2023-06-24T05:01:00;102441.81;;;28.11;42.72
71964;BME280;59834;52.124;5.422;2023-06-24T05:03:27;102440.72;;;28.29;40.98
71964;BME280;59834;52.124;5.422;2023-06-24T05:05:54;102442.78;;;28.18;41.65
71964;BME280;59834;52.124;5.422;2023-06-24T05:08:20;102452.22;;;28.14;42.24
71964;BME280;59834;52.124;5.422;2023-06-24T05:10:47;102459.34;;;28.38;40.65
71964;BME280;59834;52.124;5.422;2023-06-24T05:13:13;102450.66;;;28.28;40.72
71964;BME280;59834;52.124;5.422;2023-06-24T05:15:40;102451.31;;;27.66;41.53
71964;BME280;59834;52.124;5.422;2023-06-24T05:18:06;102453.41;;;26.14;44.59
71964;BME280;59834;52.124;5.422;2023-06-24T05:20:33;102452.88;;;24.97;47.50
71964;BME280;59834;52.124;5.422;2023-06-24T05:22:59;102451.94;;;25.68;46.78
71964;BME280;59834;52.124;5.422;2023-06-24T05:25:26;102454.84;;;26.93;43.97
71964;BME280;59834;52.124;5.422;2023-06-24T05:27:53;102461.09;;;27.43;42.12
71964;BME280;59834;52.124;5.422;2023-06-24T05:30:19;102456.34;;;27.94;42.13
71964;BME280;59834;52.124;5.422;2023-06-24T05:32:46;102455.50;;;28.33;41.54
71964;BME280;59834;52.124;5.422;2023-06-24T05:35:13;102449.34;;;28.55;40.83
71964;BME280;59834;52.124;5.422;2023-06-24T05:37:39;102445.84;;;28.78;40.34
71964;BME280;59834;52.124;5.422;2023-06-24T05:40:06;102451.28;;;29.01;40.54
71964;BME280;59834;52.124;5.422;2023-06-24T05:42:33;102450.03;;;28.80;40.12
71964;BME280;59834;52.124;5.422;2023-06-24T05:45:00;102458.31;;;28.79;39.83
71964;BME280;59834;52.124;5.422;2023-06-24T05:47:27;102463.38;;;28.74;39.98
71964;BME280;59834;52.124;5.422;2023-06-24T05:49:53;102467.84;;;28.58;40.50
71964;BME280;59834;52.124;5.422;2023-06-24T05:52:20;102461.16;;;28.54;40.93
71964;BME280;59834;52.124;5.422;2023-06-24T05:54:47;102452.09;;;28.47;40.87
71964;BME280;59834;52.124;5.422;2023-06-24T05:57:13;102455.16;;;28.44;41.36
71964;BME280;59834;52.124;5.422;2023-06-24T05:59:40;102461.38;;;28.45;41.42
71964;BME280;59834;52.124;5.422;2023-06-24T06:02:06;102466.53;;;28.54;41.37
71964;BME280;59834;52.124;5.422;2023-06-24T06:04:33;102469.16;;;28.62;41.15
71964;BME280;59834;52.124;5.422;2023-06-24T06:07:00;102465.47;;;28.63;40.41
71964;BME280;59834;52.124;5.422;2023-06-24T06:09:26;102463.88;;;28.46;40.92
71964;BME280;59834;52.124;5.422;2023-06-24T06:11:57;102459.44;;;28.84;40.59
71964;BME280;59834;52.124;5.422;2023-06-24T06:14:23;102463.81;;;28.85;40.29
71964;BME280;59834;52.124;5.422;2023-06-24T06:16:50;102460.56;;;28.67;40.58
71964;BME280;59834;52.124;5.422;2023-06-24T06:19:16;102456.78;;;28.76;39.41
71964;BME280;59834;52.124;5.422;2023-06-24T06:21:44;102460.19;;;28.47;40.60
71964;BME280;59834;52.124;5.422;2023-06-24T06:24:10;102461.53;;;28.74;40.22
71964;BME280;59834;52.124;5.422;2023-06-24T06:26:41;102459.59;;;28.83;40.18
71964;BME280;59834;52.124;5.422;2023-06-24T06:29:09;102467.75;;;28.43;40.94
71964;BME280;59834;52.124;5.422;2023-06-24T06:31:35;102476.78;;;28.11;40.99
71964;BME280;59834;52.124;5.422;2023-06-24T06:34:02;102465.75;;;27.98;41.66
71964;BME280;59834;52.124;5.422;2023-06-24T06:36:29;102464.09;;;28.28;41.41
71964;BME280;59834;52.124;5.422;2023-06-24T06:38:56;102459.09;;;28.56;41.02
71964;BME280;59834;52.124;5.422;2023-06-24T06:41:22;102463.88;;;28.46;40.58
71964;BME280;59834;52.124;5.422;2023-06-24T06:43:51;102460.31;;;28.06;41.39
71964;BME280;59834;52.124;5.422;2023-06-24T06:46:18;102460.09;;;28.16;41.95
71964;BME280;59834;52.124;5.422;2023-06-24T06:48:45;102468.69;;;28.19;41.59
71964;BME280;59834;52.124;5.422;2023-06-24T06:51:12;102469.66;;;27.87;41.78
71964;BME280;59834;52.124;5.422;2023-06-24T06:53:38;102462.69;;;28.01;41.93
71964;BME280;59834;52.124;5.422;2023-06-24T06:56:05;102455.66;;;27.92;42.07
71964;BME280;59834;52.124;5.422;2023-06-24T06:58:32;102464.22;;;28.04;42.32
71964;BME280;59834;52.124;5.422;2023-06-24T07:00:59;102458.94;;;28.18;41.54
71964;BME280;59834;52.124;5.422;2023-06-24T07:03:28;102464.50;;;28.17;43.02
71964;BME280;59834;52.124;5.422;2023-06-24T07:05:54;102462.91;;;27.83;42.00
71964;BME280;59834;52.124;5.422;2023-06-24T07:08:21;102465.69;;;28.06;41.68
71964;BME280;59834;52.124;5.422;2023-06-24T07:10:47;102464.06;;;27.97;42.22
71964;BME280;59834;52.124;5.422;2023-06-24T07:13:14;102460.69;;;27.95;42.54
71964;BME280;59834;52.124;5.422;2023-06-24T07:15:40;102458.53;;;27.74;41.69
71964;BME280;59834;52.124;5.422;2023-06-24T07:18:07;102462.06;;;27.66;41.79
71964;BME280;59834;52.124;5.422;2023-06-24T07:20:33;102465.59;;;26.85;44.04
71964;BME280;59834;52.124;5.422;2023-06-24T07:23:00;102466.53;;;26.17;45.72
71964;BME280;59834;52.124;5.422;2023-06-24T07:25:26;102462.00;;;25.92;46.20
71964;BME280;59834;52.124;5.422;2023-06-24T07:27:54;102477.56;;;25.80;46.58
71964;BME280;59834;52.124;5.422;2023-06-24T07:30:21;102475.69;;;25.36;47.96
71964;BME280;59834;52.124;5.422;2023-06-24T07:32:48;102478.44;;;25.45;47.91
71964;BME280;59834;52.124;5.422;2023-06-24T07:35:15;102469.63;;;25.52;48.03
71964;BME280;59834;52.124;5.422;2023-06-24T07:37:42;102472.22;;;25.44;47.34
71964;BME280;59834;52.124;5.422;2023-06-24T07:40:09;102473.06;;;25.45;48.12
71964;BME280;59834;52.124;5.422;2023-06-24T07:42:36;102475.13;;;25.51;48.04
71964;BME280;59834;52.124;5.422;2023-06-24T07:45:03;102470.25;;;25.46;47.32
71964;BME280;59834;52.124;5.422;2023-06-24T07:47:29;102470.69;;;24.88;48.95
71964;BME280;59834;52.124;5.422;2023-06-24T07:49:58;102465.88;;;24.91;49.68
71964;BME280;59834;52.124;5.422;2023-06-24T07:52:24;102468.03;;;25.06;47.34
71964;BME280;59834;52.124;5.422;2023-06-24T07:54:51;102471.06;;;24.75;47.01
71964;BME280;59834;52.124;5.422;2023-06-24T07:57:18;102471.50;;;24.53;48.91
71964;BME280;59834;52.124;5.422;2023-06-24T07:59:44;102467.28;;;24.96;48.32
71964;BME280;59834;52.124;5.422;2023-06-24T08:02:11;102465.19;;;25.07;47.87
71964;BME280;59834;52.124;5.422;2023-06-24T08:04:38;102463.31;;;25.35;48.20
71964;BME280;59834;52.124;5.422;2023-06-24T08:07:05;102464.91;;;25.72;47.22
71964;BME280;59834;52.124;5.422;2023-06-24T08:09:31;102468.25;;;25.74;46.38
71964;BME280;59834;52.124;5.422;2023-06-24T08:11:58;102453.84;;;25.75;46.92
71964;BME280;59834;52.124;5.422;2023-06-24T08:14:24;102453.09;;;25.65;46.26
71964;BME280;59834;52.124;5.422;2023-06-24T08:16:51;102463.47;;;25.60;47.39
71964;BME280;59834;52.124;5.422;2023-06-24T08:19:17;102455.44;;;25.60;46.16
71964;BME280;59834;52.124;5.422;2023-06-24T08:21:44;102455.47;;;25.68;46.53
71964;BME280;59834;52.124;5.422;2023-06-24T08:24:11;102461.97;;;25.83;46.40
71964;BME280;59834;52.124;5.422;2023-06-24T08:26:37;102456.66;;;25.92;46.04
71964;BME280;59834;52.124;5.422;2023-06-24T08:29:03;102457.09;;;25.61;46.11
71964;BME280;59834;52.124;5.422;2023-06-24T08:31:30;102450.19;;;25.76;45.88
71964;BME280;59834;52.124;5.422;2023-06-24T08:33:59;102455.06;;;26.07;45.08
71964;BME280;59834;52.124;5.422;2023-06-24T08:36:27;102449.13;;;25.95;45.42
71964;BME280;59834;52.124;5.422;2023-06-24T08:38:55;102454.28;;;25.89;45.63
71964;BME280;59834;52.124;5.422;2023-06-24T08:41:22;102461.50;;;25.88;45.64
71964;BME280;59834;52.124;5.422;2023-06-24T08:43:52;102456.47;;;25.67;46.00
71964;BME280;59834;52.124;5.422;2023-06-24T08:46:19;102456.69;;;25.74;46.19
71964;BME280;59834;52.124;5.422;2023-06-24T08:48:48;102455.59;;;26.10;46.17
71964;BME280;59834;52.124;5.422;2023-06-24T08:51:18;102449.28;;;25.94;44.65
71964;BME280;59834;52.124;5.422;2023-06-24T08:53:47;102451.56;;;26.15;45.14
71964;BME280;59834;52.124;5.422;2023-06-24T08:56:15;102448.44;;;26.19;44.57
71964;BME280;59834;52.124;5.422;2023-06-24T08:58:42;102448.38;;;26.11;44.61
71964;BME280;59834;52.124;5.422;2023-06-24T09:01:08;102446.28;;;25.97;45.83
71964;BME280;59834;52.124;5.422;2023-06-24T09:03:35;102452.16;;;25.74;46.63
71964;BME280;59834;52.124;5.422;2023-06-24T09:06:02;102452.94;;;25.84;46.73
71964;BME280;59834;52.124;5.422;2023-06-24T09:08:29;102452.38;;;26.07;46.80
71964;BME280;59834;52.124;5.422;2023-06-24T09:10:55;102446.66;;;26.36;46.40
71964;BME280;59834;52.124;5.422;2023-06-24T09:13:33;102446.47;;;26.46;45.33
71964;BME280;59834;52.124;5.422;2023-06-24T09:16:10;102443.88;;;26.54;45.25
71964;BME280;59834;52.124;5.422;2023-06-24T09:18:37;102448.88;;;26.49;45.44
71964;BME280;59834;52.124;5.422;2023-06-24T09:21:04;102440.59;;;26.42;45.62
71964;BME280;59834;52.124;5.422;2023-06-24T09:23:35;102441.97;;;26.46;45.71
71964;BME280;59834;52.124;5.422;2023-06-24T09:26:02;102441.94;;;26.38;45.62
71964;BME280;59834;52.124;5.422;2023-06-24T09:28:29;102437.84;;;26.60;45.82
71964;BME280;59834;52.124;5.422;2023-06-24T09:31:06;102436.72;;;26.95;45.01
71964;BME280;59834;52.124;5.422;2023-06-24T09:33:46;102435.19;;;26.85;43.38
71964;BME280;59834;52.124;5.422;2023-06-24T09:36:15;102430.81;;;26.75;44.69
71964;BME280;59834;52.124;5.422;2023-06-24T09:38:43;102430.97;;;26.82;44.85
71964;BME280;59834;52.124;5.422;2023-06-24T09:41:11;102426.44;;;26.83;44.98
71964;BME280;59834;52.124;5.422;2023-06-24T09:43:41;102424.78;;;26.82;45.04
71964;BME280;59834;52.124;5.422;2023-06-24T09:46:11;102424.28;;;26.78;45.31
71964;BME280;59834;52.124;5.422;2023-06-24T09:48:37;102432.00;;;26.89;45.38
71964;BME280;59834;52.124;5.422;2023-06-24T09:51:05;102425.81;;;27.05;44.94
71964;BME280;59834;52.124;5.422;2023-06-24T09:53:33;102425.16;;;27.19;44.68
71964;BME280;59834;52.124;5.422;2023-06-24T09:56:01;102416.06;;;27.29;43.04
71964;BME280;59834;52.124;5.422;2023-06-24T09:58:36;102415.75;;;27.40;43.81
71964;BME280;59834;52.124;5.422;2023-06-24T10:01:04;102416.03;;;27.61;43.24
71964;BME280;59834;52.124;5.422;2023-06-24T10:03:36;102411.34;;;27.63;43.72
71964;BME280;59834;52.124;5.422;2023-06-24T10:06:04;102418.53;;;27.63;43.13
71964;BME280;59834;52.124;5.422;2023-06-24T10:08:32;102420.25;;;27.56;43.50
71964;BME280;59834;52.124;5.422;2023-06-24T10:10:59;102418.03;;;27.59;43.38
71964;BME280;59834;52.124;5.422;2023-06-24T10:13:26;102407.28;;;27.59;43.39
71964;BME280;59834;52.124;5.422;2023-06-24T10:15:55;102409.97;;;27.67;42.96
71964;BME280;59834;52.124;5.422;2023-06-24T10:18:35;102411.63;;;27.77;43.43
71964;BME280;59834;52.124;5.422;2023-06-24T10:21:04;102416.66;;;27.88;43.39
71964;BME280;59834;52.124;5.422;2023-06-24T10:26:28;102411.22;;;28.04;42.84
71964;BME280;59834;52.124;5.422;2023-06-24T10:44:51;102398.88;;;28.49;40.50
71964;BME280;59834;52.124;5.422;2023-06-24T10:47:18;102394.81;;;28.22;41.00
71964;BME280;59834;52.124;5.422;2023-06-24T10:49:45;102390.78;;;27.87;42.55
71964;BME280;59834;52.124;5.422;2023-06-24T10:52:12;102387.91;;;28.19;42.54
71964;BME280;59834;52.124;5.422;2023-06-24T10:54:40;102396.03;;;28.11;42.60
71964;BME280;59834;52.124;5.422;2023-06-24T10:57:08;102389.59;;;27.73;44.51
71964;BME280;59834;52.124;5.422;2023-06-24T10:59:35;102389.25;;;28.24;42.87
71964;BME280;59834;52.124;5.422;2023-06-24T11:02:01;102386.72;;;28.22;42.02
71964;BME280;59834;52.124;5.422;2023-06-24T11:04:28;102391.47;;;27.81;43.15
71964;BME280;59834;52.124;5.422;2023-06-24T11:07:02;102386.41;;;27.69;44.37
71964;BME280;59834;52.124;5.422;2023-06-24T11:09:29;102380.38;;;27.59;44.91
71964;BME280;59834;52.124;5.422;2023-06-24T11:11:55;102375.75;;;27.37;44.39
71964;BME280;59834;52.124;5.422;2023-06-24T11:14:22;102376.94;;;27.90;43.33
71964;BME280;59834;52.124;5.422;2023-06-24T11:16:49;102383.13;;;28.38;43.01
71964;BME280;59834;52.124;5.422;2023-06-24T11:19:16;102368.22;;;28.50;41.40
71964;BME280;59834;52.124;5.422;2023-06-24T11:21:42;102378.56;;;28.07;42.13
71964;BME280;59834;52.124;5.422;2023-06-24T11:24:08;102378.66;;;27.83;43.02
71964;BME280;59834;52.124;5.422;2023-06-24T11:26:38;102385.59;;;27.77;42.76
71964;BME280;59834;52.124;5.422;2023-06-24T11:29:10;102382.72;;;27.70;44.94
71964;BME280;59834;52.124;5.422;2023-06-24T11:31:37;102376.00;;;27.66;43.41
71964;BME280;59834;52.124;5.422;2023-06-24T11:34:04;102374.69;;;27.54;43.70
71964;BME280;59834;52.124;5.422;2023-06-24T11:36:32;102376.72;;;27.52;44.22
71964;BME280;59834;52.124;5.422;2023-06-24T11:38:59;102374.66;;;27.62;44.04
71964;BME280;59834;52.124;5.422;2023-06-24T11:41:25;102361.34;;;27.85;43.99
71964;BME280;59834;52.124;5.422;2023-06-24T11:43:53;102364.41;;;28.45;43.02
71964;BME280;59834;52.124;5.422;2023-06-24T11:46:27;102357.88;;;28.85;42.63
71964;BME280;59834;52.124;5.422;2023-06-24T11:49:06;102355.34;;;29.06;42.36
71964;BME280;59834;52.124;5.422;2023-06-24T11:51:34;102348.94;;;29.07;41.62
71964;BME280;59834;52.124;5.422;2023-06-24T11:54:03;102353.25;;;29.31;40.19
71964;BME280;59834;52.124;5.422;2023-06-24T11:56:36;102347.09;;;29.23;40.12
71964;BME280;59834;52.124;5.422;2023-06-24T11:59:06;102352.03;;;28.96;39.31
71964;BME280;59834;52.124;5.422;2023-06-24T12:01:34;102351.47;;;28.63;41.25
71964;BME280;59834;52.124;5.422;2023-06-24T12:04:12;102357.66;;;28.17;41.72
71964;BME280;59834;52.124;5.422;2023-06-24T12:06:43;102358.72;;;28.08;42.84
71964;BME280;59834;52.124;5.422;2023-06-24T12:09:10;102352.50;;;28.08;42.49
71964;BME280;59834;52.124;5.422;2023-06-24T12:11:37;102352.28;;;28.17;42.29
71964;BME280;59834;52.124;5.422;2023-06-24T12:14:05;102354.63;;;28.12;43.31
71964;BME280;59834;52.124;5.422;2023-06-24T12:16:32;102348.84;;;28.01;44.36
71964;BME280;59834;52.124;5.422;2023-06-24T12:18:58;102348.84;;;28.01;44.21
71964;BME280;59834;52.124;5.422;2023-06-24T12:21:25;102349.06;;;27.83;43.85
71964;BME280;59834;52.124;5.422;2023-06-24T12:23:51;102351.09;;;27.81;44.05
71964;BME280;59834;52.124;5.422;2023-06-24T12:26:19;102341.31;;;27.88;44.73
71964;BME280;59834;52.124;5.422;2023-06-24T12:28:45;102343.66;;;27.91;45.11
71964;BME280;59834;52.124;5.422;2023-06-24T12:31:12;102338.09;;;27.92;45.37
71964;BME280;59834;52.124;5.422;2023-06-24T12:33:39;102338.22;;;27.99;45.07
71964;BME280;59834;52.124;5.422;2023-06-24T12:36:06;102338.00;;;28.09;44.60
71964;BME280;59834;52.124;5.422;2023-06-24T12:38:32;102335.28;;;28.17;44.05
71964;BME280;59834;52.124;5.422;2023-06-24T12:40:59;102335.03;;;28.27;44.46
71964;BME280;59834;52.124;5.422;2023-06-24T12:43:26;102333.50;;;28.32;44.99
71964;BME280;59834;52.124;5.422;2023-06-24T12:45:52;102332.88;;;28.22;44.96
71964;BME280;59834;52.124;5.422;2023-06-24T12:48:19;102329.66;;;28.27;44.38
71964;BME280;59834;52.124;5.422;2023-06-24T12:50:45;102322.53;;;28.42;45.01
71964;BME280;59834;52.124;5.422;2023-06-24T12:53:13;102330.03;;;28.47;43.78
71964;BME280;59834;52.124;5.422;2023-06-24T12:55:41;102321.53;;;28.35;43.56
71964;BME280;59834;52.124;5.422;2023-06-24T12:58:08;102322.25;;;28.29;43.76
71964;BME280;59834;52.124;5.422;2023-06-24T13:00:34;102313.81;;;28.32;43.38
71964;BME280;59834;52.124;5.422;2023-06-24T13:03:01;102322.00;;;28.38;44.52
71964;BME280;59834;52.124;5.422;2023-06-24T13:05:28;102318.53;;;28.30;42.38
71964;BME280;59834;52.124;5.422;2023-06-24T13:07:58;102316.47;;;28.40;42.77
71964;BME280;59834;52.124;5.422;2023-06-24T13:10:25;102319.13;;;28.48;42.55
71964;BME280;59834;52.124;5.422;2023-06-24T13:12:52;102318.41;;;28.54;42.49
71964;BME280;59834;52.124;5.422;2023-06-24T13:15:19;102318.88;;;28.27;41.82
71964;BME280;59834;52.124;5.422;2023-06-24T13:17:45;102311.94;;;28.32;43.33
71964;BME280;59834;52.124;5.422;2023-06-24T13:20:12;102316.72;;;28.22;42.99
71964;BME280;59834;52.124;5.422;2023-06-24T13:22:38;102304.56;;;28.03;42.52